^^
Grace C. Lehan Memorial Weather Station Historical Data
Daily Summary for August 15, 2021 Units:  Metric    English   Both
Daily Weekly Monthly Yearly
  High: Low: Average:
Temperature: 28.4 °C 17.8 °C 22.5 °C
Dew Point: 19.4 °C 15.1 °C 17.3 °C
Humidity: 96% 48.5% 74%
Wind Speed: 12.1km/h 0km/h 1.1km/h
Wind Gust: 30.6km/h - -
Wind- - West
Pressure: 1007.3 hPa 1003.9 hPa -
Precipitation: 0 mm    
 
 
Tabular Data for August 15, 2021
Time Temperature Dew Point Pressure Wind Wind Speed Wind Gust Humidity Rainfall Rate (Hourly) solar
00:09 18.3 °C 17.4 °C 1007.3 hPa Calm     95% 0 mm 0 W/m2
00:14 18.2 °C 17.4 °C 1007.3 hPa Calm     95% 0 mm 0 W/m2
00:19 18.2 °C 17.4 °C 1007.3 hPa Calm     95% 0 mm 0 W/m2
00:24 18.2 °C 17.3 °C 1007 hPa Calm     95% 0 mm 0 W/m2
00:25 18.2 °C 17.3 °C 1007 hPa Calm     95% 0 mm 0 W/m2
01:00 18.2 °C 17.4 °C 1007.3 hPa Calm     95% 0 mm 0 W/m2
01:30 18.3 °C 17.6 °C 1006.7 hPa Calm     96% 0 mm 0 W/m2
02:00 18.3 °C 17.6 °C 1007 hPa Calm     96% 0 mm 0 W/m2
02:30 18.1 °C 17.3 °C 1007 hPa Calm     95% 0 mm 0 W/m2
03:00 18.2 °C 17.5 °C 1006.3 hPa Calm     96% 0 mm 0 W/m2
03:30 18.2 °C 17.5 °C 1006.3 hPa Calm     96% 0 mm 0 W/m2
04:04 18.2 °C 17.5 °C 1006.7 hPa Calm     96% 0 mm 0 W/m2
04:09 18.2 °C 17.5 °C 1006.7 hPa Calm     96% 0 mm 0 W/m2
04:14 18.2 °C 17.6 °C 1006.7 hPa Calm     96% 0 mm 0 W/m2
04:19 18.2 °C 17.6 °C 1006.7 hPa Calm     96% 0 mm 0 W/m2
04:24 18.2 °C 17.5 °C 1006.7 hPa Calm     96% 0 mm 0 W/m2
04:29 18.2 °C 17.5 °C 1006.7 hPa Calm     96% 0 mm 0 W/m2
04:34 18.1 °C 17.4 °C 1006.7 hPa Calm     96% 0 mm 0 W/m2
04:39 18 °C 17.3 °C 1006.7 hPa Calm     96% 0 mm 0 W/m2
04:44 17.9 °C 17.2 °C 1006.3 hPa Calm     95.6% 0 mm 0 W/m2
04:49 17.8 °C 17 °C 1006.3 hPa Calm     95% 0 mm 0 W/m2
04:54 17.8 °C 17 °C 1006.3 hPa Calm     95% 0 mm 0 W/m2
04:59 17.8 °C 17.2 °C 1006.3 hPa Calm     95.8% 0 mm 0 W/m2
05:04 17.8 °C 17.2 °C 1006 hPa Calm     96% 0 mm 0 W/m2
05:09 17.8 °C 17.2 °C 1006 hPa Calm     96% 0 mm 0 W/m2
05:14 17.8 °C 17.2 °C 1006.3 hPa Calm     96% 0 mm 0 W/m2
05:19 17.8 °C 17.2 °C 1006.3 hPa Calm     96% 0 mm 0 W/m2
05:24 17.8 °C 17.1 °C 1006.3 hPa Calm     96% 0 mm 0 W/m2
05:29 17.8 °C 17.2 °C 1006.7 hPa Calm     96% 0 mm 0 W/m2
05:34 17.8 °C 17.2 °C 1006.7 hPa Calm     96% 0 mm 0 W/m2
05:39 17.8 °C 17.2 °C 1006.7 hPa Calm     96% 0 mm 0 W/m2
05:44 17.9 °C 17.2 °C 1006.7 hPa Calm     96% 0 mm 7 W/m2
05:49 17.9 °C 17.2 °C 1006.7 hPa Calm     96% 0 mm 7 W/m2
05:54 17.9 °C 17.3 °C 1006.7 hPa Calm     96% 0 mm 9 W/m2
05:58 17.9 °C 17.3 °C 1006.7 hPa Calm     96% 0 mm 9 W/m2
06:00 17.9 °C 17.3 °C 1006.7 hPa Calm     96% 0 mm 4 W/m2
06:30 18 °C 17.3 °C 1006.3 hPa Calm     96% 0 mm 18 W/m2
07:00 18 °C 17.3 °C 1006.3 hPa Calm   1.6 km/h 96% 0 mm 23 W/m2
07:30 18.3 °C 17.6 °C 1006.3 hPa Calm     96% 0 mm 35 W/m2
08:04 18.8 °C 18.2 °C 1006 hPa Calm     96% 0 mm 225 W/m2
08:09 18.8 °C 18.2 °C 1006.3 hPa West 3.1 km/h 9.7 km/h 96% 0 mm 267 W/m2
08:14 18.8 °C 18.1 °C 1006.3 hPa West 0.8 km/h 9.7 km/h 95.5% 0 mm 214 W/m2
08:19 18.9 °C 18.1 °C 1006.3 hPa West 1.4 km/h 9.7 km/h 94.6% 0 mm 109 W/m2
08:24 19 °C 17.8 °C 1006.3 hPa Calm   9.7 km/h 93.2% 0 mm 120 W/m2
08:29 19.2 °C 18.1 °C 1006.3 hPa Calm   9.7 km/h 93% 0 mm 183 W/m2
08:34 19.4 °C 18.1 °C 1006 hPa Calm   9.7 km/h 92.4% 0 mm 221 W/m2
08:39 19.6 °C 18.2 °C 1006 hPa Calm     91.9% 0 mm 248 W/m2
08:44 19.7 °C 18.1 °C 1006 hPa WNW 0.6 km/h 6.4 km/h 90.4% 0 mm 214 W/m2
08:49 19.8 °C 17.9 °C 1006 hPa Calm   6.4 km/h 88.4% 0 mm 128 W/m2
08:54 19.9 °C 17.7 °C 1006 hPa Calm   6.4 km/h 87% 0 mm 162 W/m2
08:59 19.9 °C 17.6 °C 1006 hPa Calm   6.4 km/h 86.5% 0 mm 179 W/m2
09:04 20.1 °C 17.8 °C 1006 hPa Calm   6.4 km/h 86.8% 0 mm 179 W/m2
09:09 20.2 °C 17.9 °C 1006 hPa Calm   1.6 km/h 86.4% 0 mm 336 W/m2
09:14 20.4 °C 18 °C 1006 hPa Calm   1.6 km/h 85.8% 0 mm 294 W/m2
09:19 20.6 °C 17.8 °C 1006 hPa WNW 0.5 km/h 3.2 km/h 84.1% 0 mm 265 W/m2
09:24 20.8 °C 18.2 °C 1006 hPa WNW 0.3 km/h 3.2 km/h 84.5% 0 mm 615 W/m2
09:29 21.2 °C 18.5 °C 1006 hPa Calm   3.2 km/h 84.5% 0 mm 615 W/m2
09:34 21.6 °C 18.6 °C 1006 hPa Calm   3.2 km/h 82.8% 0 mm 383 W/m2
09:39 21.9 °C 18.7 °C 1006 hPa WNW 2.9 km/h 11.3 km/h 82.2% 0 mm 357 W/m2
09:44 22 °C 18.7 °C 1006 hPa WNW 0.8 km/h 11.3 km/h 81.3% 0 mm 306 W/m2
09:49 22.1 °C 18.7 °C 1006 hPa Calm   11.3 km/h 81.2% 0 mm 258 W/m2
09:54 22.3 °C 19 °C 1006 hPa Calm   11.3 km/h 81.3% 0 mm 359 W/m2
09:59 22.6 °C 19.3 °C 1006 hPa Calm   11.3 km/h 81.3% 0 mm 290 W/m2
10:04 22.8 °C 18.9 °C 1006 hPa WNW 1.1 km/h 11.3 km/h 78.8% 0 mm 218 W/m2
10:09 22.8 °C 18.8 °C 1006 hPa WNW 0.2 km/h 6.4 km/h 78.3% 0 mm 926 W/m2
10:14 23 °C 19.3 °C 1006 hPa WNW 0.6 km/h 6.4 km/h 79.9% 0 mm 972 W/m2
10:19 23.2 °C 18.9 °C 1006 hPa WNW 2.4 km/h 9.7 km/h 76.9% 0 mm 274 W/m2
10:24 23.2 °C 18.6 °C 1006 hPa WNW 1 km/h 9.7 km/h 75.2% 0 mm 348 W/m2
10:29 23.2 °C 18.7 °C 1006 hPa WNW 1.8 km/h 9.7 km/h 76% 0 mm 411 W/m2
10:34 23.1 °C 18.6 °C 1006 hPa WNW 0.2 km/h 9.7 km/h 75.7% 0 mm 578 W/m2
10:39 23.2 °C 18.8 °C 1006 hPa Calm   3.2 km/h 76.5% 0 mm 578 W/m2
10:44 23.3 °C 18.9 °C 1006 hPa WNW 0.5 km/h 4.8 km/h 76.7% 0 mm 425 W/m2
10:49 23.4 °C 19 °C 1006 hPa WNW 1 km/h 6.4 km/h 76.4% 0 mm 499 W/m2
10:54 23.4 °C 19 °C 1006 hPa WNW 0.2 km/h 6.4 km/h 76% 0 mm 638 W/m2
10:59 23.5 °C 18.8 °C 1006 hPa Calm   6.4 km/h 74.9% 0 mm 357 W/m2
11:04 23.6 °C 19.3 °C 1006 hPa WNW 0.2 km/h 6.4 km/h 77.3% 0 mm 874 W/m2
11:09 23.7 °C 19.2 °C 1006 hPa WNW 0.5 km/h 4.8 km/h 76.2% 0 mm 1034 W/m2
11:14 23.9 °C 19.4 °C 1006 hPa WNW 0.2 km/h 4.8 km/h 76.1% 0 mm 1034 W/m2
11:19 24 °C 18.7 °C 1006 hPa Calm   4.8 km/h 72.2% 0 mm 1092 W/m2
11:24 24.1 °C 19.1 °C 1005.6 hPa WNW 2.3 km/h 9.7 km/h 73.6% 0 mm 1034 W/m2
11:29 24.2 °C 18.8 °C 1005.6 hPa WNW 0.2 km/h 9.7 km/h 72% 0 mm 673 W/m2
11:34 24.2 °C 18.8 °C 1005.6 hPa Calm   9.7 km/h 71.8% 0 mm 673 W/m2
11:39 24.2 °C 18.6 °C 1005.6 hPa WNW 0.2 km/h 3.2 km/h 71% 0 mm 274 W/m2
11:44 24.1 °C 18.7 °C 1005.6 hPa WNW 0.8 km/h 8 km/h 71.9% 0 mm 274 W/m2
11:49 24.1 °C 18.4 °C 1005.6 hPa WNW 0.3 km/h 8 km/h 70.8% 0 mm 1046 W/m2
11:54 24.2 °C 18.8 °C 1006 hPa Calm   8 km/h 72.2% 0 mm 1171 W/m2
11:59 24.4 °C 19.1 °C 1006 hPa Calm   8 km/h 72.3% 0 mm 666 W/m2
12:04 24.7 °C 18.4 °C 1005.6 hPa Calm     68% 0 mm 454 W/m2
12:09 24.8 °C 18.8 °C 1005.6 hPa WNW 0.2 km/h 3.2 km/h 69.1% 0 mm 1102 W/m2
12:14 24.9 °C 17.7 °C 1005.6 hPa Calm   3.2 km/h 64% 0 mm 1125 W/m2
12:19 25 °C 17.8 °C 1005.6 hPa WNW 0.2 km/h 3.2 km/h 64.4% 0 mm 1032 W/m2
12:24 25.2 °C 17.9 °C 1005.6 hPa WNW 1.8 km/h 6.4 km/h 64.3% 0 mm 1055 W/m2
12:29 25.4 °C 17.9 °C 1005.6 hPa WNW 0.2 km/h 6.4 km/h 63% 0 mm 1055 W/m2
12:34 25.6 °C 17.9 °C 1005.6 hPa Calm   6.4 km/h 62.7% 0 mm 585 W/m2
12:39 25.6 °C 17.9 °C 1005.6 hPa Calm     62.6% 0 mm 1062 W/m2
12:44 25.7 °C 17.8 °C 1005.6 hPa WNW 1.3 km/h 8 km/h 61.8% 0 mm 1025 W/m2
12:49 25.8 °C 17.9 °C 1005.6 hPa Calm   8 km/h 61.8% 0 mm 1007 W/m2
12:54 25.9 °C 17.7 °C 1005.6 hPa Calm   8 km/h 60.6% 0 mm 1063 W/m2
12:59 25.9 °C 17.4 °C 1005.3 hPa Calm   8 km/h 59.6% 0 mm 1065 W/m2
13:04 25.8 °C 17.9 °C 1005.3 hPa Calm   8 km/h 61.9% 0 mm 1065 W/m2
13:09 25.8 °C 18.6 °C 1005.3 hPa WNW 1 km/h 8 km/h 64% 0 mm 998 W/m2
13:14 25.9 °C 18.1 °C 1005.3 hPa West 1.3 km/h 11.3 km/h 61.7% 0 mm 197 W/m2
13:19 25.8 °C 17.8 °C 1005.3 hPa Calm   11.3 km/h 61.4% 0 mm 1146 W/m2
13:24 25.8 °C 18.2 °C 1005.3 hPa Calm   11.3 km/h 62.9% 0 mm 1146 W/m2
13:29 26.1 °C 18.8 °C 1005 hPa Calm   11.3 km/h 64.2% 0 mm 1100 W/m2
13:34 26.4 °C 18.7 °C 1005.3 hPa SW 1.8 km/h 11.3 km/h 62.3% 0 mm 1099 W/m2
13:39 26.7 °C 18.4 °C 1005 hPa WSW 0.6 km/h 9.7 km/h 60.7% 0 mm 1099 W/m2
13:44 26.9 °C 18.8 °C 1005 hPa Calm   9.7 km/h 61.4% 0 mm 1062 W/m2
13:49 27 °C 18.6 °C 1005 hPa WSW 0.3 km/h 9.7 km/h 59.8% 0 mm 225 W/m2
13:54 26.9 °C 18.3 °C 1005 hPa Calm   9.7 km/h 59.2% 0 mm 188 W/m2
13:59 26.7 °C 18.1 °C 1005 hPa WSW 0.2 km/h 9.7 km/h 59.3% 0 mm 1130 W/m2
14:04 26.6 °C 18.2 °C 1005 hPa WSW 0.3 km/h 9.7 km/h 60.1% 0 mm 1130 W/m2
14:09 26.6 °C 17.9 °C 1005 hPa WSW 0.3 km/h 8 km/h 59.1% 0 mm 216 W/m2
14:14 26.6 °C 18.4 °C 1004.6 hPa WSW 0.5 km/h 8 km/h 60.9% 0 mm 1162 W/m2
14:19 26.7 °C 17.9 °C 1004.6 hPa Calm   8 km/h 58.9% 0 mm 250 W/m2
14:24 26.6 °C 17.6 °C 1004.6 hPa Calm   8 km/h 57.7% 0 mm 1049 W/m2
14:29 26.5 °C 17.9 °C 1004.6 hPa WSW 0.3 km/h 8 km/h 59.3% 0 mm 1016 W/m2
14:34 26.6 °C 18.2 °C 1004.3 hPa West 1.4 km/h 8 km/h 60.1% 0 mm 942 W/m2
14:39 26.7 °C 17.8 °C 1004.3 hPa West 0.5 km/h 6.4 km/h 57.9% 0 mm 947 W/m2
14:44 26.9 °C 17.9 °C 1004.3 hPa West 0.6 km/h 6.4 km/h 57.7% 0 mm 962 W/m2
14:49 27.1 °C 17.8 °C 1004.3 hPa WSW 1.6 km/h 11.3 km/h 56.6% 0 mm 958 W/m2
14:54 27.2 °C 17.9 °C 1004.3 hPa Calm   11.3 km/h 56.8% 0 mm 981 W/m2
14:59 27.1 °C 18.3 °C 1004.3 hPa WSW 0.3 km/h 11.3 km/h 58.5% 0 mm 988 W/m2
15:04 27.2 °C 18.3 °C 1004.3 hPa WSW 1 km/h 11.3 km/h 58.3% 0 mm 991 W/m2
15:09 27.3 °C 17.2 °C 1004.3 hPa SW 0.5 km/h 6.4 km/h 53.7% 0 mm 956 W/m2
15:14 27.4 °C 17.2 °C 1004.3 hPa WSW 0.8 km/h 8 km/h 53.5% 0 mm 940 W/m2
15:19 27.5 °C 17.4 °C 1004.3 hPa WNW 2.6 km/h 16.1 km/h 54.2% 0 mm 928 W/m2
15:24 27.6 °C 17.7 °C 1003.9 hPa WSW 3.9 km/h 16.1 km/h 54.7% 0 mm 893 W/m2
15:29 27.7 °C 17.1 °C 1004.3 hPa WSW 2.1 km/h 16.1 km/h 52.4% 0 mm 898 W/m2
15:34 27.8 °C 17.8 °C 1004.3 hPa West 2.6 km/h 17.7 km/h 54.6% 0 mm 895 W/m2
15:39 27.9 °C 17.5 °C 1004.3 hPa WNW 4.8 km/h 17.7 km/h 52.9% 0 mm 881 W/m2
15:44 28.2 °C 17.6 °C 1004.3 hPa West 1.6 km/h 17.7 km/h 52.7% 0 mm 881 W/m2
15:49 28.3 °C 17.4 °C 1004.3 hPa WNW 3.1 km/h 17.7 km/h 51.7% 0 mm 853 W/m2
15:54 28.3 °C 17.4 °C 1003.9 hPa WNW 4.2 km/h 17.7 km/h 51.5% 0 mm 833 W/m2
15:59 28.4 °C 17.2 °C 1003.9 hPa West 4 km/h 17.7 km/h 50.9% 0 mm 812 W/m2
16:00 28.4 °C 17.3 °C 1003.9 hPa Calm   17.7 km/h 51% 0 mm 779 W/m2
16:09 28.2 °C 16.3 °C 1003.9 hPa WSW 2.1 km/h 8 km/h 48.5% 0 mm 752 W/m2
16:14 28 °C 16.3 °C 1003.9 hPa SW 3.1 km/h 9.7 km/h 49% 0 mm 740 W/m2
16:19 27.8 °C 16.1 °C 1003.9 hPa WSW 1.6 km/h 9.7 km/h 48.7% 0 mm 77 W/m2
16:24 27.7 °C 16.6 °C 1003.9 hPa West 4.3 km/h 14.5 km/h 50.7% 0 mm 91 W/m2
16:29 27.5 °C 16.5 °C 1003.9 hPa West 2.9 km/h 14.5 km/h 51% 0 mm 60 W/m2
16:34 27.4 °C 16.4 °C 1003.9 hPa West 4.2 km/h 16.1 km/h 50.8% 0 mm 72 W/m2
16:39 27.4 °C 16.5 °C 1003.9 hPa WSW 2.7 km/h 16.1 km/h 51.4% 0 mm 120 W/m2
16:44 27.3 °C 16.2 °C 1003.9 hPa West 3.7 km/h 16.1 km/h 50.5% 0 mm 98 W/m2
16:49 27.1 °C 16.4 °C 1004.3 hPa West 5.8 km/h 19.3 km/h 51.8% 0 mm 113 W/m2
16:54 26.9 °C 16.8 °C 1004.3 hPa WNW 12.1 km/h 30.6 km/h 53.8% 0 mm 172 W/m2
16:59 26.3 °C 16.7 °C 1004.3 hPa WNW 8 km/h 30.6 km/h 55.5% 0 mm 130 W/m2
17:04 25.7 °C 16.8 °C 1004.3 hPa WNW 4 km/h 30.6 km/h 58.1% 0 mm 134 W/m2
17:09 25.1 °C 16.8 °C 1004.3 hPa WNW 11.1 km/h 30.6 km/h 60% 0 mm 172 W/m2
17:14 24.7 °C 16.8 °C 1004.6 hPa WNW 9.2 km/h 30.6 km/h 61.6% 0 mm 158 W/m2
17:19 24.5 °C 16.9 °C 1004.6 hPa WNW 6.6 km/h 30.6 km/h 62.8% 0 mm 100 W/m2
17:24 24.2 °C 16.3 °C 1004.6 hPa WNW 7.4 km/h 30.6 km/h 61.3% 0 mm 121 W/m2
17:29 23.9 °C 16.3 °C 1004.6 hPa WNW 4.3 km/h 30.6 km/h 62.7% 0 mm 128 W/m2
17:34 23.6 °C 16.2 °C 1004.3 hPa West 5 km/h 30.6 km/h 63.3% 0 mm 98 W/m2
17:39 23.3 °C 16.2 °C 1004.3 hPa West 2.7 km/h 16.1 km/h 64.3% 0 mm 81 W/m2
17:44 23.2 °C 16.3 °C 1004.3 hPa West 1.4 km/h 16.1 km/h 65.1% 0 mm 121 W/m2
17:49 23.1 °C 16.6 °C 1004.3 hPa WSW 2.4 km/h 16.1 km/h 66.5% 0 mm 141 W/m2
17:54 23.3 °C 16.8 °C 1004.3 hPa WNW 3.4 km/h 16.1 km/h 66.8% 0 mm 105 W/m2
17:59 23.4 °C 16.7 °C 1004.3 hPa West 5.5 km/h 16.1 km/h 65.7% 0 mm 51 W/m2
18:04 23.6 °C 16.6 °C 1004.3 hPa West 2.9 km/h 16.1 km/h 64.7% 0 mm 39 W/m2
18:09 23.8 °C 16.8 °C 1004.3 hPa West 3.2 km/h 14.5 km/h 64.9% 0 mm 35 W/m2
18:14 23.8 °C 16.4 °C 1003.9 hPa West 5 km/h 16.1 km/h 63.5% 0 mm 33 W/m2
18:19 23.7 °C 16.3 °C 1003.9 hPa WNW 3.5 km/h 16.1 km/h 63.3% 0 mm 35 W/m2
18:24 23.6 °C 16.7 °C 1003.9 hPa West 4.2 km/h 16.1 km/h 64.9% 0 mm 35 W/m2
18:29 23.6 °C 16.5 °C 1004.3 hPa West 4.5 km/h 16.1 km/h 64.3% 0 mm 39 W/m2
18:34 23.6 °C 16.4 °C 1004.3 hPa West 3.9 km/h 16.1 km/h 64.2% 0 mm 39 W/m2
18:39 23.7 °C 16.3 °C 1004.3 hPa West 4.7 km/h 11.3 km/h 63.6% 0 mm 30 W/m2
18:44 23.7 °C 16.3 °C 1004.3 hPa WSW 4.3 km/h 14.5 km/h 63.4% 0 mm 30 W/m2
18:49 23.7 °C 16.3 °C 1004.3 hPa West 3.1 km/h 14.5 km/h 63% 0 mm 28 W/m2
18:54 23.7 °C 16.3 °C 1004.3 hPa WNW 2.7 km/h 14.5 km/h 63.2% 0 mm 28 W/m2
18:59 23.8 °C 16.3 °C 1004.3 hPa WSW 2.7 km/h 14.5 km/h 63% 0 mm 26 W/m2
19:04 23.7 °C 16.1 °C 1004.3 hPa West 4.2 km/h 14.5 km/h 62.5% 0 mm 26 W/m2
19:09 23.7 °C 16.1 °C 1004.3 hPa West 5.5 km/h 17.7 km/h 62.5% 0 mm 25 W/m2
19:14 23.6 °C 16.3 °C 1004.3 hPa WNW 1.6 km/h 17.7 km/h 63.8% 0 mm 25 W/m2
19:19 23.6 °C 16.6 °C 1004.3 hPa West 3.4 km/h 17.7 km/h 64.8% 0 mm 23 W/m2
19:24 23.4 °C 16.5 °C 1004.3 hPa West 3.4 km/h 17.7 km/h 65% 0 mm 23 W/m2
19:29 23.4 °C 16.4 °C 1004.3 hPa WSW 0.8 km/h 17.7 km/h 65% 0 mm 21 W/m2
19:34 23.3 °C 16.7 °C 1004.3 hPa WSW 0.3 km/h 17.7 km/h 66% 0 mm 19 W/m2
19:39 23.3 °C 16.5 °C 1004.6 hPa West 2.6 km/h 11.3 km/h 65.8% 0 mm 19 W/m2
19:44 23.2 °C 16.6 °C 1004.6 hPa WSW 0.5 km/h 11.3 km/h 66.3% 0 mm 18 W/m2
19:49 23.1 °C 16.4 °C 1004.6 hPa West 2.7 km/h 11.3 km/h 66.2% 0 mm 16 W/m2
19:54 22.9 °C 16.6 °C 1004.6 hPa West 0.8 km/h 11.3 km/h 67.1% 0 mm 14 W/m2
19:59 22.8 °C 16.7 °C 1004.6 hPa West 0.8 km/h 11.3 km/h 68% 0 mm 12 W/m2
20:09 22.6 °C 16.6 °C 1005 hPa WSW 1.4 km/h 8 km/h 69% 0 mm 7 W/m2
20:14 22.5 °C 16.6 °C 1005 hPa Calm   8 km/h 69.2% 0 mm 0 W/m2
20:19 22.4 °C 16.7 °C 1005 hPa Calm   8 km/h 70% 0 mm 0 W/m2
20:24 22.3 °C 16.6 °C 1005 hPa Calm   8 km/h 70% 0 mm 0 W/m2
20:29 22.2 °C 16.6 °C 1005 hPa Calm   8 km/h 70.5% 0 mm 0 W/m2
20:34 22.1 °C 16.6 °C 1005 hPa Calm   8 km/h 71% 0 mm 0 W/m2
20:39 22 °C 16.6 °C 1005 hPa Calm     71.2% 0 mm 0 W/m2
20:44 21.9 °C 16.6 °C 1005 hPa Calm     72% 0 mm 0 W/m2
20:49 21.8 °C 16.6 °C 1005.3 hPa Calm     72% 0 mm 0 W/m2
20:54 21.7 °C 16.6 °C 1005.3 hPa Calm     73% 0 mm 0 W/m2
20:59 21.6 °C 16.7 °C 1005.6 hPa WSW 0.2 km/h 3.2 km/h 73.8% 0 mm 0 W/m2
21:04 21.4 °C 16.6 °C 1005.6 hPa WSW 0.2 km/h 4.8 km/h 74% 0 mm 0 W/m2
21:09 21.3 °C 16.6 °C 1005.6 hPa WSW 0.3 km/h 4.8 km/h 74.5% 0 mm 0 W/m2
21:14 21.2 °C 16.6 °C 1005.6 hPa West 1.4 km/h 8 km/h 75.1% 0 mm 0 W/m2
21:19 21.1 °C 16.7 °C 1005.6 hPa West 0.3 km/h 8 km/h 76.1% 0 mm 0 W/m2
21:24 20.9 °C 16.6 °C 1005.6 hPa West 0.3 km/h 8 km/h 76.1% 0 mm 0 W/m2
21:29 20.9 °C 16.5 °C 1006 hPa West 0.2 km/h 8 km/h 76% 0 mm 0 W/m2
21:34 20.8 °C 16.4 °C 1006 hPa West 0.2 km/h 8 km/h 76.1% 0 mm 0 W/m2
21:39 20.7 °C 16.4 °C 1006 hPa WNW 2.4 km/h 11.3 km/h 76.3% 0 mm 0 W/m2
21:44 20.6 °C 16.3 °C 1006 hPa WNW 0.3 km/h 11.3 km/h 76% 0 mm 0 W/m2
21:49 20.6 °C 16.2 °C 1006 hPa WNW 0.3 km/h 11.3 km/h 76% 0 mm 0 W/m2
21:54 20.4 °C 15.9 °C 1006 hPa WNW 0.2 km/h 11.3 km/h 75.2% 0 mm 0 W/m2
21:59 20.4 °C 15.8 °C 1005.6 hPa Calm   11.3 km/h 75% 0 mm 0 W/m2
22:04 20.3 °C 15.9 °C 1006 hPa WNW 0.5 km/h 11.3 km/h 76% 0 mm 0 W/m2
22:09 20.2 °C 15.9 °C 1006 hPa West 2.1 km/h 11.3 km/h 76% 0 mm 0 W/m2
22:14 20.2 °C 15.8 °C 1006 hPa West 0.6 km/h 11.3 km/h 76% 0 mm 0 W/m2
22:19 20.2 °C 15.9 °C 1006 hPa West 1.1 km/h 11.3 km/h 76.3% 0 mm 0 W/m2
22:24 20.1 °C 15.8 °C 1006 hPa West 0.3 km/h 11.3 km/h 76.1% 0 mm 0 W/m2
22:29 20.1 °C 15.7 °C 1006 hPa WNW 2.9 km/h 12.9 km/h 76% 0 mm 0 W/m2
22:34 20 °C 15.6 °C 1006 hPa WNW 4 km/h 12.9 km/h 76% 0 mm 0 W/m2
22:39 19.9 °C 15.6 °C 1006 hPa WNW 0.6 km/h 11.3 km/h 76% 0 mm 0 W/m2
22:44 19.8 °C 15.6 °C 1006 hPa WNW 0.5 km/h 11.3 km/h 76.9% 0 mm 0 W/m2
22:49 19.7 °C 15.6 °C 1006 hPa Calm   11.3 km/h 77% 0 mm 0 W/m2
22:54 19.7 °C 15.5 °C 1006.3 hPa NNW 0.2 km/h 11.3 km/h 77% 0 mm 0 W/m2
22:59 19.6 °C 15.4 °C 1006.3 hPa Calm   11.3 km/h 77% 0 mm 0 W/m2
23:04 19.5 °C 15.4 °C 1006.3 hPa NNW 0.2 km/h 11.3 km/h 77.4% 0 mm 0 W/m2
23:09 19.4 °C 15.4 °C 1006.3 hPa NNW 0.2 km/h 4.8 km/h 78% 0 mm 0 W/m2
23:14 19.3 °C 15.4 °C 1006.3 hPa Calm   4.8 km/h 78% 0 mm 0 W/m2
23:19 19.2 °C 15.3 °C 1006.3 hPa Calm   4.8 km/h 78.2% 0 mm 0 W/m2
23:24 19.1 °C 15.4 °C 1006.3 hPa WNW 0.5 km/h 8 km/h 79% 0 mm 0 W/m2
23:29 19.1 °C 15.3 °C 1006.3 hPa WNW 0.3 km/h 8 km/h 79% 0 mm 0 W/m2
23:34 18.9 °C 15.3 °C 1006.3 hPa WNW 0.3 km/h 8 km/h 79.2% 0 mm 0 W/m2
23:39 18.8 °C 15.3 °C 1006.3 hPa WNW 0.6 km/h 8 km/h 79.7% 0 mm 0 W/m2
23:44 18.8 °C 15.2 °C 1006 hPa Calm   8 km/h 80% 0 mm 0 W/m2
23:49 18.7 °C 15.1 °C 1006 hPa Calm   8 km/h 80% 0 mm 0 W/m2
23:54 18.6 °C 15.1 °C 1006 hPa Calm   8 km/h 80.5% 0 mm 0 W/m2
23:59 18.4 °C 15.1 °C 1006 hPa Calm   8 km/h 81% 0 mm 0 W/m2
Hartford County Weather
Compliments of Weather Underground - 2 mb